createdAt,value
2023-01-01T00:01:47.726Z,227.00
2023-01-01T00:08:30.184Z,223.40
2023-01-01T00:15:12.514Z,207.40
2023-01-01T00:21:55.148Z,214.13
2023-01-01T00:28:37.590Z,242.48
2023-01-01T00:35:19.910Z,199.20
2023-01-01T00:42:02.350Z,194.63
2023-01-01T00:48:45.426Z,203.02
2023-01-01T00:55:27.775Z,198.48
2023-01-01T01:02:10.372Z,196.00
2023-01-01T01:08:52.854Z,168.57
2023-01-01T01:15:35.205Z,152.95
2023-01-01T01:22:19.592Z,146.18
2023-01-01T01:29:05.315Z,152.45
2023-01-01T01:35:54.671Z,139.57
2023-01-01T01:42:37.191Z,166.98
2023-01-01T01:49:28.987Z,132.15
2023-01-01T01:56:15.968Z,136.38
2023-01-01T02:03:05.518Z,107.30
2023-01-01T02:09:48.107Z,101.85
2023-01-01T02:16:37.856Z,101.43
2023-01-01T02:23:29.078Z,126.88
2023-01-01T02:30:12.685Z,127.18
2023-01-01T02:36:58.124Z,139.70
2023-01-01T02:43:41.739Z,123.15
2023-01-01T02:50:29.338Z,127.95
2023-01-01T02:57:24.077Z,116.60
2023-01-01T03:04:12.937Z,130.10
2023-01-01T03:10:59.547Z,143.93
2023-01-01T03:17:52.291Z,122.20
2023-01-01T03:24:49.956Z,122.50
2023-01-01T03:31:33.996Z,123.85
2023-01-01T03:38:37.658Z,119.07
2023-01-01T03:45:35.708Z,85.57
2023-01-01T03:52:32.885Z,90.30
2023-01-01T03:59:27.975Z,129.55
2023-01-01T04:06:12.098Z,116.63
2023-01-01T04:12:57.259Z,119.97
2023-01-01T04:19:39.914Z,118.13
2023-01-01T04:26:47.026Z,96.53
2023-01-01T04:33:29.327Z,116.68
2023-01-01T04:40:12.984Z,106.90
2023-01-01T04:46:59.967Z,99.32
2023-01-01T04:53:43.416Z,114.38
2023-01-01T05:00:31.925Z,103.07
2023-01-01T05:07:14.379Z,100.07
2023-01-01T05:13:58.890Z,88.28
2023-01-01T05:20:41.169Z,107.60
2023-01-01T05:27:23.656Z,77.22
2023-01-01T05:40:47.206Z,97.03
2023-01-01T05:47:30.132Z,40.58
2023-01-01T06:00:54.134Z,83.90
2023-01-01T06:07:36.954Z,91.97
2023-01-01T06:14:19.221Z,75.63
2023-01-01T06:21:15.308Z,27.48
2023-01-01T06:27:57.626Z,19.63
2023-01-01T06:34:39.890Z,26.25
2023-01-01T06:41:24.225Z,16.05
2023-01-01T06:48:06.508Z,20.88
2023-01-01T06:54:48.873Z,14.38
2023-01-01T07:01:35.433Z,45.30
2023-01-01T07:08:17.951Z,30.17
2023-01-01T07:15:00.220Z,20.92
2023-01-01T07:21:51.621Z,9.82
2023-01-01T07:28:33.912Z,22.98
2023-01-01T07:35:16.244Z,21.42
2023-01-01T07:41:58.503Z,32.95
2023-01-01T07:48:40.834Z,10.07
2023-01-01T07:55:23.114Z,12.88
2023-01-01T08:02:05.688Z,18.45
2023-01-01T08:08:48.095Z,25.15
2023-01-01T08:15:30.594Z,36.22
2023-01-01T08:22:13.275Z,35.72
2023-01-01T08:28:57.575Z,30.98
2023-01-01T08:35:42.445Z,33.25
2023-01-01T08:42:24.803Z,30.45
2023-01-01T08:49:07.140Z,31.80
2023-01-01T08:56:00.763Z,27.90
2023-01-01T09:02:44.266Z,25.58
2023-01-01T09:09:31.273Z,23.50
2023-01-01T09:16:14.422Z,21.50
2023-01-01T09:23:01.015Z,22.42
2023-01-01T09:29:46.583Z,20.42
2023-01-01T09:36:47.143Z,22.42
2023-01-01T09:43:32.516Z,21.02
2023-01-01T09:50:35.488Z,15.02
2023-01-01T09:57:20.336Z,12.70
2023-01-01T10:04:29.096Z,15.35
2023-01-01T10:11:21.241Z,15.57
2023-01-01T10:18:12.739Z,13.73
2023-01-01T10:25:16.335Z,13.88
2023-01-01T10:32:06.104Z,12.48
2023-01-01T10:38:49.907Z,13.02
2023-01-01T10:45:35.414Z,11.05
2023-01-01T10:52:28.049Z,14.10
2023-01-01T10:59:35.717Z,12.88
2023-01-01T11:06:27.388Z,9.05
2023-01-01T11:13:31.306Z,8.68
2023-01-01T11:20:20.283Z,8.40
2023-01-01T11:27:24.612Z,9.02
2023-01-01T11:34:32.570Z,13.45
2023-01-01T11:41:14.936Z,10.48
2023-01-01T11:48:03.600Z,9.25
2023-01-01T11:54:49.612Z,9.20
2023-01-01T12:01:56.405Z,8.68
2023-01-01T12:09:19.182Z,8.25
2023-01-01T12:16:13.981Z,6.25
2023-01-01T12:22:58.481Z,7.47
2023-01-01T12:30:01.325Z,5.85
2023-01-01T12:37:14.225Z,4.65
2023-01-01T12:44:08.639Z,5.45
2023-01-01T12:51:34.209Z,4.80
2023-01-01T12:58:25.587Z,10.55
2023-01-01T13:05:39.791Z,7.03
2023-01-01T13:12:24.482Z,6.68
2023-01-01T13:19:35.368Z,6.60
2023-01-01T13:26:17.745Z,4.07
2023-01-01T13:33:29.353Z,8.55
2023-01-01T13:40:11.611Z,8.75
2023-01-01T13:47:26.092Z,4.43
2023-01-01T13:54:36.366Z,8.05
2023-01-01T14:02:01.697Z,4.38
2023-01-01T14:08:44.182Z,6.22
2023-01-01T14:15:30.769Z,6.68
2023-01-01T14:22:16.967Z,6.18
2023-01-01T14:29:03.244Z,4.97
2023-01-01T14:35:52.695Z,4.43
2023-01-01T14:42:36.740Z,8.57
2023-01-01T14:49:27.476Z,9.30
2023-01-01T14:56:10.199Z,10.60
2023-01-01T15:02:52.661Z,10.05
2023-01-01T15:09:36.672Z,11.35
2023-01-01T15:16:24.192Z,11.00
2023-01-01T15:23:10.376Z,10.00
2023-01-01T15:29:53.556Z,10.20
2023-01-01T15:36:35.904Z,11.43
2023-01-01T15:43:22.787Z,13.07
2023-01-01T15:50:13.483Z,17.08
2023-01-01T15:56:56.011Z,17.92
2023-01-01T16:03:40.758Z,16.20
2023-01-01T16:10:28.727Z,12.50
2023-01-01T16:17:20.188Z,14.45
2023-01-01T16:24:02.475Z,13.82
2023-01-01T16:30:47.004Z,17.17
2023-01-01T16:37:29.377Z,12.10
2023-01-01T16:44:15.471Z,14.27
2023-01-01T16:50:59.827Z,12.45
2023-01-01T16:57:43.291Z,13.20
2023-01-01T17:04:26.847Z,20.58
2023-01-01T17:11:15.798Z,11.55
2023-01-01T17:17:58.310Z,18.40
2023-01-01T17:24:40.755Z,14.27
2023-01-01T17:31:24.473Z,19.08
2023-01-01T17:38:06.855Z,14.57
2023-01-01T17:44:49.448Z,10.88
2023-01-01T17:51:32.041Z,15.80
2023-01-01T17:58:14.365Z,16.13
2023-01-01T18:04:56.659Z,19.02
2023-01-01T18:11:39.203Z,20.70
2023-01-01T18:18:37.425Z,24.27
2023-01-01T18:25:19.858Z,20.65
2023-01-01T18:32:02.179Z,20.67
2023-01-01T18:38:53.164Z,21.73
2023-01-01T18:45:35.570Z,22.30
2023-01-01T18:52:28.577Z,20.35
2023-01-01T18:59:20.646Z,32.03
2023-01-01T19:06:26.944Z,24.13
2023-01-01T19:13:33.016Z,17.33
2023-01-01T19:20:18.349Z,20.77
2023-01-01T19:27:17.310Z,20.67
2023-01-01T19:33:59.962Z,23.80
2023-01-01T19:40:42.264Z,22.08
2023-01-01T19:47:24.578Z,18.25
2023-01-01T19:54:07.204Z,22.75
2023-01-01T20:00:50.869Z,27.15
2023-01-01T20:07:34.255Z,13.15
2023-01-01T20:14:17.247Z,10.15
2023-01-01T20:21:23.563Z,6.70
2023-01-01T20:28:26.889Z,9.00
2023-01-01T20:35:09.141Z,7.93
2023-01-01T20:41:51.440Z,11.55
2023-01-01T20:48:33.706Z,17.25
2023-01-01T20:55:16.196Z,5.78
2023-01-01T21:02:00.033Z,8.75
2023-01-01T21:08:42.989Z,7.00
2023-01-01T21:15:25.318Z,4.53
2023-01-01T21:22:12.706Z,8.20
2023-01-01T21:28:55.404Z,6.80
2023-01-01T21:35:38.048Z,4.32
2023-01-01T21:42:40.508Z,7.38
2023-01-01T21:49:33.335Z,6.30
2023-01-01T21:56:39.553Z,5.18
2023-01-01T22:03:22.109Z,6.50
2023-01-01T22:10:36.895Z,4.10
2023-01-01T22:17:37.242Z,4.60
2023-01-01T22:24:26.759Z,4.88
2023-01-01T22:31:13.004Z,4.93
2023-01-01T22:38:03.327Z,3.13
2023-01-01T22:44:59.135Z,4.95
2023-01-01T22:51:44.590Z,4.10
2023-01-01T22:58:26.915Z,5.22
2023-01-01T23:05:10.379Z,2.63
2023-01-01T23:11:55.120Z,6.90
2023-01-01T23:19:00.266Z,3.47
2023-01-01T23:25:56.316Z,5.25
2023-01-01T23:32:39.469Z,6.32
2023-01-01T23:39:21.957Z,4.85
2023-01-01T23:46:04.645Z,6.30
2023-01-01T23:52:46.976Z,7.95
2023-01-01T23:59:31.139Z,4.03
